Many Farms, Arizona
Current Conditions -  °F | °C
As of 9:53 AM on Tuesday 27 Jan 2015 (Local Time) from KRQE Reporting Station
Few Clouds Few Clouds  
Wind Chill: 43°   Ceiling: Unl
Heat Index: 43°   Visibility: 10mi
Dew Point: 30°   Wind: 0mph
Humidity: 60%   Direction: NA
Pressure: 30.4"   Gusts: NA
Location:  36.35°N, 109.62°W
Report Text: KRQE 271653Z AUTO 00000KT 10SM FEW110 06/M01 A3040 RMK AO2 SLP268 T00611011 TSNO
Loading
Personal Weather Stations






























Interactive Weather Map New forecast layout! Learn more

10-Day Weather Forecast

Advertisements
Track Severe Weather on mobile